sensor_id;sensor_type;location;lat;lon;timestamp;temperature;humidity
11540;DHT22;5826;54.756;9.192;2022-11-20T00:01:45;3.90;99.90
11540;DHT22;5826;54.756;9.192;2022-11-20T00:04:11;3.80;99.90
11540;DHT22;5826;54.756;9.192;2022-11-20T00:06:37;3.80;99.90
11540;DHT22;5826;54.756;9.192;2022-11-20T00:09:03;3.80;99.90
11540;DHT22;5826;54.756;9.192;2022-11-20T00:11:31;3.80;99.90
11540;DHT22;5826;54.756;9.192;2022-11-20T00:13:58;3.80;99.90
11540;DHT22;5826;54.756;9.192;2022-11-20T00:16:27;3.80;99.90
11540;DHT22;5826;54.756;9.192;2022-11-20T00:18:53;3.80;99.90
11540;DHT22;5826;54.756;9.192;2022-11-20T00:21:24;3.80;99.90
11540;DHT22;5826;54.756;9.192;2022-11-20T00:23:51;3.80;99.90
11540;DHT22;5826;54.756;9.192;2022-11-20T00:26:18;3.80;99.90
11540;DHT22;5826;54.756;9.192;2022-11-20T00:28:49;3.80;99.90
11540;DHT22;5826;54.756;9.192;2022-11-20T00:31:16;3.80;99.90
11540;DHT22;5826;54.756;9.192;2022-11-20T00:33:43;3.70;99.90
11540;DHT22;5826;54.756;9.192;2022-11-20T00:36:17;3.60;99.90
11540;DHT22;5826;54.756;9.192;2022-11-20T00:38:44;3.60;99.90
11540;DHT22;5826;54.756;9.192;2022-11-20T00:41:11;3.60;99.90
11540;DHT22;5826;54.756;9.192;2022-11-20T00:43:37;3.70;99.90
11540;DHT22;5826;54.756;9.192;2022-11-20T00:46:06;3.60;99.90
11540;DHT22;5826;54.756;9.192;2022-11-20T00:48:32;3.60;99.90
11540;DHT22;5826;54.756;9.192;2022-11-20T00:50:58;3.60;99.90
11540;DHT22;5826;54.756;9.192;2022-11-20T00:53:24;3.70;99.90
11540;DHT22;5826;54.756;9.192;2022-11-20T00:56:00;3.70;99.90
11540;DHT22;5826;54.756;9.192;2022-11-20T00:58:31;3.80;99.90
11540;DHT22;5826;54.756;9.192;2022-11-20T01:01:09;3.80;99.90
11540;DHT22;5826;54.756;9.192;2022-11-20T01:03:37;3.90;99.90
11540;DHT22;5826;54.756;9.192;2022-11-20T01:06:26;3.90;99.90
11540;DHT22;5826;54.756;9.192;2022-11-20T01:08:52;3.90;99.90
11540;DHT22;5826;54.756;9.192;2022-11-20T01:11:20;3.80;99.90
11540;DHT22;5826;54.756;9.192;2022-11-20T01:13:47;3.70;99.90
11540;DHT22;5826;54.756;9.192;2022-11-20T01:16:19;3.70;99.90
11540;DHT22;5826;54.756;9.192;2022-11-20T01:18:47;3.70;99.90
11540;DHT22;5826;54.756;9.192;2022-11-20T01:21:21;3.70;99.90
11540;DHT22;5826;54.756;9.192;2022-11-20T01:23:47;3.60;99.90
11540;DHT22;5826;54.756;9.192;2022-11-20T01:26:15;3.60;99.90
11540;DHT22;5826;54.756;9.192;2022-11-20T01:28:41;3.60;99.90
11540;DHT22;5826;54.756;9.192;2022-11-20T01:31:22;3.60;99.90
11540;DHT22;5826;54.756;9.192;2022-11-20T01:33:51;3.60;99.90
11540;DHT22;5826;54.756;9.192;2022-11-20T01:36:18;3.60;99.90
11540;DHT22;5826;54.756;9.192;2022-11-20T01:38:44;3.70;99.90
11540;DHT22;5826;54.756;9.192;2022-11-20T01:41:11;3.70;99.90
11540;DHT22;5826;54.756;9.192;2022-11-20T01:43:57;3.70;99.90
11540;DHT22;5826;54.756;9.192;2022-11-20T01:46:23;3.70;99.90
11540;DHT22;5826;54.756;9.192;2022-11-20T01:49:04;3.70;99.90
11540;DHT22;5826;54.756;9.192;2022-11-20T01:51:42;3.70;99.90
11540;DHT22;5826;54.756;9.192;2022-11-20T01:54:13;3.70;99.90
11540;DHT22;5826;54.756;9.192;2022-11-20T01:56:41;3.70;99.90
11540;DHT22;5826;54.756;9.192;2022-11-20T01:59:08;3.70;99.90
11540;DHT22;5826;54.756;9.192;2022-11-20T02:01:35;3.70;99.90
11540;DHT22;5826;54.756;9.192;2022-11-20T02:04:01;3.60;99.90
11540;DHT22;5826;54.756;9.192;2022-11-20T02:06:36;3.60;99.90
11540;DHT22;5826;54.756;9.192;2022-11-20T02:09:02;3.60;99.90
11540;DHT22;5826;54.756;9.192;2022-11-20T02:11:30;3.60;99.90
11540;DHT22;5826;54.756;9.192;2022-11-20T02:13:55;3.60;99.90
11540;DHT22;5826;54.756;9.192;2022-11-20T02:16:24;3.60;99.90
11540;DHT22;5826;54.756;9.192;2022-11-20T02:18:51;3.50;99.90
11540;DHT22;5826;54.756;9.192;2022-11-20T02:24:21;3.60;99.90
11540;DHT22;5826;54.756;9.192;2022-11-20T02:26:59;3.60;99.90
11540;DHT22;5826;54.756;9.192;2022-11-20T02:29:33;3.60;99.90
11540;DHT22;5826;54.756;9.192;2022-11-20T02:32:01;3.60;99.90
11540;DHT22;5826;54.756;9.192;2022-11-20T02:34:27;3.70;99.90
11540;DHT22;5826;54.756;9.192;2022-11-20T02:36:54;3.70;99.90
11540;DHT22;5826;54.756;9.192;2022-11-20T02:39:20;3.70;99.90
11540;DHT22;5826;54.756;9.192;2022-11-20T02:41:47;3.70;99.90
11540;DHT22;5826;54.756;9.192;2022-11-20T02:44:13;3.60;99.90
11540;DHT22;5826;54.756;9.192;2022-11-20T02:46:38;3.60;99.90
11540;DHT22;5826;54.756;9.192;2022-11-20T02:49:05;3.60;99.90
11540;DHT22;5826;54.756;9.192;2022-11-20T02:51:31;3.70;99.90
11540;DHT22;5826;54.756;9.192;2022-11-20T02:53:57;3.70;99.90
11540;DHT22;5826;54.756;9.192;2022-11-20T02:56:23;3.60;99.90
11540;DHT22;5826;54.756;9.192;2022-11-20T02:58:48;3.50;99.90
11540;DHT22;5826;54.756;9.192;2022-11-20T03:01:14;3.50;99.90
11540;DHT22;5826;54.756;9.192;2022-11-20T03:03:39;3.50;99.90
11540;DHT22;5826;54.756;9.192;2022-11-20T03:06:05;3.50;99.90
11540;DHT22;5826;54.756;9.192;2022-11-20T03:08:31;3.50;99.90
11540;DHT22;5826;54.756;9.192;2022-11-20T03:10:56;3.60;99.90
11540;DHT22;5826;54.756;9.192;2022-11-20T03:13:22;3.60;99.90
11540;DHT22;5826;54.756;9.192;2022-11-20T03:15:47;3.60;99.90
11540;DHT22;5826;54.756;9.192;2022-11-20T03:18:13;3.60;99.90
11540;DHT22;5826;54.756;9.192;2022-11-20T03:20:39;3.60;99.90
11540;DHT22;5826;54.756;9.192;2022-11-20T03:23:04;3.60;99.90
11540;DHT22;5826;54.756;9.192;2022-11-20T03:25:30;3.70;99.90
11540;DHT22;5826;54.756;9.192;2022-11-20T03:27:55;3.70;99.90
11540;DHT22;5826;54.756;9.192;2022-11-20T03:30:21;3.80;99.90
11540;DHT22;5826;54.756;9.192;2022-11-20T03:32:47;3.80;99.90
11540;DHT22;5826;54.756;9.192;2022-11-20T03:35:12;3.80;99.90
11540;DHT22;5826;54.756;9.192;2022-11-20T03:37:38;3.90;99.90
11540;DHT22;5826;54.756;9.192;2022-11-20T03:40:04;3.90;99.90
11540;DHT22;5826;54.756;9.192;2022-11-20T03:42:29;3.90;99.90
11540;DHT22;5826;54.756;9.192;2022-11-20T03:45:10;3.90;99.90
11540;DHT22;5826;54.756;9.192;2022-11-20T03:47:36;3.90;99.90
11540;DHT22;5826;54.756;9.192;2022-11-20T03:50:02;3.90;99.90
11540;DHT22;5826;54.756;9.192;2022-11-20T03:52:27;4.00;99.90
11540;DHT22;5826;54.756;9.192;2022-11-20T03:54:53;3.90;99.90
11540;DHT22;5826;54.756;9.192;2022-11-20T03:57:18;3.90;99.90
11540;DHT22;5826;54.756;9.192;2022-11-20T03:59:43;4.00;99.90
11540;DHT22;5826;54.756;9.192;2022-11-20T04:02:09;4.00;99.90
11540;DHT22;5826;54.756;9.192;2022-11-20T04:04:34;4.00;99.90
11540;DHT22;5826;54.756;9.192;2022-11-20T04:07:00;4.10;99.90
11540;DHT22;5826;54.756;9.192;2022-11-20T04:09:26;4.10;99.90
11540;DHT22;5826;54.756;9.192;2022-11-20T04:11:51;4.10;99.90
11540;DHT22;5826;54.756;9.192;2022-11-20T04:14:16;4.00;99.90
11540;DHT22;5826;54.756;9.192;2022-11-20T04:16:43;4.00;99.90
11540;DHT22;5826;54.756;9.192;2022-11-20T04:19:15;4.00;99.90
11540;DHT22;5826;54.756;9.192;2022-11-20T04:21:42;4.10;99.90
11540;DHT22;5826;54.756;9.192;2022-11-20T04:24:08;4.20;99.90
11540;DHT22;5826;54.756;9.192;2022-11-20T04:26:34;4.20;99.90
11540;DHT22;5826;54.756;9.192;2022-11-20T04:29:00;4.20;99.90
11540;DHT22;5826;54.756;9.192;2022-11-20T04:31:32;4.20;99.90
11540;DHT22;5826;54.756;9.192;2022-11-20T04:34:05;4.20;99.90
11540;DHT22;5826;54.756;9.192;2022-11-20T04:36:31;4.10;99.90
11540;DHT22;5826;54.756;9.192;2022-11-20T04:39:02;4.10;99.90
11540;DHT22;5826;54.756;9.192;2022-11-20T04:41:30;4.10;99.90
11540;DHT22;5826;54.756;9.192;2022-11-20T04:43:58;4.10;99.90
11540;DHT22;5826;54.756;9.192;2022-11-20T04:46:26;4.00;99.90
11540;DHT22;5826;54.756;9.192;2022-11-20T04:48:52;4.00;99.90
11540;DHT22;5826;54.756;9.192;2022-11-20T04:51:17;3.90;99.90
11540;DHT22;5826;54.756;9.192;2022-11-20T04:53:43;3.90;99.90
11540;DHT22;5826;54.756;9.192;2022-11-20T04:56:11;3.90;99.90
11540;DHT22;5826;54.756;9.192;2022-11-20T04:58:36;3.90;99.90
11540;DHT22;5826;54.756;9.192;2022-11-20T05:01:04;3.70;99.90
11540;DHT22;5826;54.756;9.192;2022-11-20T05:03:30;3.70;99.90
11540;DHT22;5826;54.756;9.192;2022-11-20T05:05:56;3.70;99.90
11540;DHT22;5826;54.756;9.192;2022-11-20T05:08:24;3.70;99.90
11540;DHT22;5826;54.756;9.192;2022-11-20T05:10:50;3.70;99.90
11540;DHT22;5826;54.756;9.192;2022-11-20T05:13:15;3.80;99.90
11540;DHT22;5826;54.756;9.192;2022-11-20T05:15:41;3.80;99.90
11540;DHT22;5826;54.756;9.192;2022-11-20T05:18:06;3.80;99.90
11540;DHT22;5826;54.756;9.192;2022-11-20T05:20:32;3.80;99.90
11540;DHT22;5826;54.756;9.192;2022-11-20T05:22:58;3.80;99.90
11540;DHT22;5826;54.756;9.192;2022-11-20T05:25:23;3.70;99.90
11540;DHT22;5826;54.756;9.192;2022-11-20T05:27:49;3.70;99.90
11540;DHT22;5826;54.756;9.192;2022-11-20T05:30:14;3.70;99.90
11540;DHT22;5826;54.756;9.192;2022-11-20T05:32:40;3.70;99.90
11540;DHT22;5826;54.756;9.192;2022-11-20T05:35:06;3.70;99.90
11540;DHT22;5826;54.756;9.192;2022-11-20T05:37:31;3.70;99.90
11540;DHT22;5826;54.756;9.192;2022-11-20T05:39:57;3.70;99.90
11540;DHT22;5826;54.756;9.192;2022-11-20T05:42:23;3.70;99.90
11540;DHT22;5826;54.756;9.192;2022-11-20T05:45:02;3.70;99.90
11540;DHT22;5826;54.756;9.192;2022-11-20T05:47:31;3.70;99.90
11540;DHT22;5826;54.756;9.192;2022-11-20T05:49:57;3.70;99.90
11540;DHT22;5826;54.756;9.192;2022-11-20T05:52:22;3.70;99.90
11540;DHT22;5826;54.756;9.192;2022-11-20T05:54:48;3.70;99.90
11540;DHT22;5826;54.756;9.192;2022-11-20T05:57:13;3.70;99.90
11540;DHT22;5826;54.756;9.192;2022-11-20T05:59:39;3.70;99.90
11540;DHT22;5826;54.756;9.192;2022-11-20T06:02:04;3.70;99.90
11540;DHT22;5826;54.756;9.192;2022-11-20T06:04:30;3.80;99.90
11540;DHT22;5826;54.756;9.192;2022-11-20T06:06:55;3.80;99.90
11540;DHT22;5826;54.756;9.192;2022-11-20T06:09:21;3.70;99.90
11540;DHT22;5826;54.756;9.192;2022-11-20T06:11:46;3.70;99.90
11540;DHT22;5826;54.756;9.192;2022-11-20T06:14:12;3.70;99.90
11540;DHT22;5826;54.756;9.192;2022-11-20T06:16:37;3.70;99.90
11540;DHT22;5826;54.756;9.192;2022-11-20T06:19:03;3.70;99.90
11540;DHT22;5826;54.756;9.192;2022-11-20T06:21:28;3.60;99.90
11540;DHT22;5826;54.756;9.192;2022-11-20T06:23:54;3.60;99.90
11540;DHT22;5826;54.756;9.192;2022-11-20T06:26:22;3.60;99.90
11540;DHT22;5826;54.756;9.192;2022-11-20T06:28:48;3.60;99.90
11540;DHT22;5826;54.756;9.192;2022-11-20T06:31:15;3.60;99.90
11540;DHT22;5826;54.756;9.192;2022-11-20T06:33:41;3.50;99.90
11540;DHT22;5826;54.756;9.192;2022-11-20T06:36:08;3.50;99.90
11540;DHT22;5826;54.756;9.192;2022-11-20T06:38:34;3.50;99.90
11540;DHT22;5826;54.756;9.192;2022-11-20T06:41:00;3.50;99.90
11540;DHT22;5826;54.756;9.192;2022-11-20T06:43:26;3.50;99.90
11540;DHT22;5826;54.756;9.192;2022-11-20T06:45:55;3.50;99.90
11540;DHT22;5826;54.756;9.192;2022-11-20T06:48:22;3.90;99.90
11540;DHT22;5826;54.756;9.192;2022-11-20T06:50:48;3.50;99.90
11540;DHT22;5826;54.756;9.192;2022-11-20T06:53:13;3.50;99.90
11540;DHT22;5826;54.756;9.192;2022-11-20T06:55:46;3.50;99.90
11540;DHT22;5826;54.756;9.192;2022-11-20T06:58:13;3.50;99.90
11540;DHT22;5826;54.756;9.192;2022-11-20T07:00:39;3.50;99.90
11540;DHT22;5826;54.756;9.192;2022-11-20T07:03:06;3.40;99.90
11540;DHT22;5826;54.756;9.192;2022-11-20T07:05:32;3.40;99.90
11540;DHT22;5826;54.756;9.192;2022-11-20T07:07:58;3.40;99.90
11540;DHT22;5826;54.756;9.192;2022-11-20T07:10:24;3.40;99.90
11540;DHT22;5826;54.756;9.192;2022-11-20T07:12:51;3.40;99.90
11540;DHT22;5826;54.756;9.192;2022-11-20T07:15:18;3.40;99.90
11540;DHT22;5826;54.756;9.192;2022-11-20T07:17:43;3.40;99.90
11540;DHT22;5826;54.756;9.192;2022-11-20T07:20:09;3.50;99.90
11540;DHT22;5826;54.756;9.192;2022-11-20T07:22:35;3.50;99.90
11540;DHT22;5826;54.756;9.192;2022-11-20T07:25:01;3.50;99.90
11540;DHT22;5826;54.756;9.192;2022-11-20T07:27:27;3.50;99.90
11540;DHT22;5826;54.756;9.192;2022-11-20T07:29:53;3.50;99.90
11540;DHT22;5826;54.756;9.192;2022-11-20T07:32:18;3.60;99.90
11540;DHT22;5826;54.756;9.192;2022-11-20T07:34:44;3.60;99.90
11540;DHT22;5826;54.756;9.192;2022-11-20T07:37:09;3.70;99.90
11540;DHT22;5826;54.756;9.192;2022-11-20T07:39:35;3.70;99.90
11540;DHT22;5826;54.756;9.192;2022-11-20T07:42:00;3.70;99.90
11540;DHT22;5826;54.756;9.192;2022-11-20T07:44:26;3.70;99.90
11540;DHT22;5826;54.756;9.192;2022-11-20T07:46:51;3.80;99.90
11540;DHT22;5826;54.756;9.192;2022-11-20T07:49:17;3.80;99.90
11540;DHT22;5826;54.756;9.192;2022-11-20T07:51:42;3.80;99.90
11540;DHT22;5826;54.756;9.192;2022-11-20T07:54:07;3.80;99.90
11540;DHT22;5826;54.756;9.192;2022-11-20T07:56:33;3.80;99.90
11540;DHT22;5826;54.756;9.192;2022-11-20T07:58:59;3.80;99.90
11540;DHT22;5826;54.756;9.192;2022-11-20T08:01:25;3.70;99.90
11540;DHT22;5826;54.756;9.192;2022-11-20T08:03:50;3.70;99.90
11540;DHT22;5826;54.756;9.192;2022-11-20T08:06:16;3.70;99.90
11540;DHT22;5826;54.756;9.192;2022-11-20T08:08:41;3.70;99.90
11540;DHT22;5826;54.756;9.192;2022-11-20T08:11:07;3.70;99.90
11540;DHT22;5826;54.756;9.192;2022-11-20T08:13:51;3.80;99.90
11540;DHT22;5826;54.756;9.192;2022-11-20T08:16:35;3.70;99.90
11540;DHT22;5826;54.756;9.192;2022-11-20T08:19:00;3.70;99.90
11540;DHT22;5826;54.756;9.192;2022-11-20T08:21:26;3.80;99.90
11540;DHT22;5826;54.756;9.192;2022-11-20T08:23:51;3.80;99.90
11540;DHT22;5826;54.756;9.192;2022-11-20T08:26:17;3.80;99.90
11540;DHT22;5826;54.756;9.192;2022-11-20T08:28:42;3.70;99.90
11540;DHT22;5826;54.756;9.192;2022-11-20T08:31:09;3.70;99.90
11540;DHT22;5826;54.756;9.192;2022-11-20T08:33:35;3.80;99.90
11540;DHT22;5826;54.756;9.192;2022-11-20T08:36:02;3.90;99.90
11540;DHT22;5826;54.756;9.192;2022-11-20T08:38:28;3.90;99.90
11540;DHT22;5826;54.756;9.192;2022-11-20T08:40:58;3.90;99.90
11540;DHT22;5826;54.756;9.192;2022-11-20T08:43:41;4.00;99.90
11540;DHT22;5826;54.756;9.192;2022-11-20T08:46:07;3.90;99.90
11540;DHT22;5826;54.756;9.192;2022-11-20T08:48:32;3.90;99.90
11540;DHT22;5826;54.756;9.192;2022-11-20T08:50:58;3.80;99.90
11540;DHT22;5826;54.756;9.192;2022-11-20T08:53:25;3.80;99.90
11540;DHT22;5826;54.756;9.192;2022-11-20T08:55:50;3.90;99.90
11540;DHT22;5826;54.756;9.192;2022-11-20T08:58:16;4.00;99.90
11540;DHT22;5826;54.756;9.192;2022-11-20T09:00:41;4.00;99.90
11540;DHT22;5826;54.756;9.192;2022-11-20T09:03:06;4.00;99.90
11540;DHT22;5826;54.756;9.192;2022-11-20T09:05:32;4.00;99.90
11540;DHT22;5826;54.756;9.192;2022-11-20T09:07:58;4.10;99.90
11540;DHT22;5826;54.756;9.192;2022-11-20T09:10:25;4.10;99.90
11540;DHT22;5826;54.756;9.192;2022-11-20T09:12:51;4.20;99.90
11540;DHT22;5826;54.756;9.192;2022-11-20T09:15:17;4.20;99.90
11540;DHT22;5826;54.756;9.192;2022-11-20T09:17:51;4.20;99.90
11540;DHT22;5826;54.756;9.192;2022-11-20T09:20:16;4.10;99.90
11540;DHT22;5826;54.756;9.192;2022-11-20T09:22:42;4.10;99.90
11540;DHT22;5826;54.756;9.192;2022-11-20T09:25:07;4.20;99.90
11540;DHT22;5826;54.756;9.192;2022-11-20T09:27:33;4.20;99.90
11540;DHT22;5826;54.756;9.192;2022-11-20T09:29:58;4.20;99.90
11540;DHT22;5826;54.756;9.192;2022-11-20T09:32:24;4.20;99.90
11540;DHT22;5826;54.756;9.192;2022-11-20T09:34:49;4.20;99.90
11540;DHT22;5826;54.756;9.192;2022-11-20T09:37:15;4.20;99.90
11540;DHT22;5826;54.756;9.192;2022-11-20T09:39:40;4.10;99.90
11540;DHT22;5826;54.756;9.192;2022-11-20T09:45:02;4.10;99.90
11540;DHT22;5826;54.756;9.192;2022-11-20T09:50:32;4.10;99.90
11540;DHT22;5826;54.756;9.192;2022-11-20T09:53:13;4.10;99.90
11540;DHT22;5826;54.756;9.192;2022-11-20T09:55:41;4.20;99.90
11540;DHT22;5826;54.756;9.192;2022-11-20T09:58:19;4.20;99.90
11540;DHT22;5826;54.756;9.192;2022-11-20T10:00:51;4.30;99.90
11540;DHT22;5826;54.756;9.192;2022-11-20T10:03:26;4.40;99.90
11540;DHT22;5826;54.756;9.192;2022-11-20T10:05:55;4.50;99.90
11540;DHT22;5826;54.756;9.192;2022-11-20T10:08:25;4.50;99.90
11540;DHT22;5826;54.756;9.192;2022-11-20T10:11:30;4.60;99.90
11540;DHT22;5826;54.756;9.192;2022-11-20T10:17:08;4.60;99.90
11540;DHT22;5826;54.756;9.192;2022-11-20T10:25:37;4.50;99.90
11540;DHT22;5826;54.756;9.192;2022-11-20T10:28:30;4.60;99.90
11540;DHT22;5826;54.756;9.192;2022-11-20T10:31:04;4.50;99.90
11540;DHT22;5826;54.756;9.192;2022-11-20T10:33:39;4.60;99.90
11540;DHT22;5826;54.756;9.192;2022-11-20T10:36:14;4.60;99.90
11540;DHT22;5826;54.756;9.192;2022-11-20T10:38:54;4.70;99.90
11540;DHT22;5826;54.756;9.192;2022-11-20T10:41:42;4.80;99.90
11540;DHT22;5826;54.756;9.192;2022-11-20T10:44:14;4.80;99.90
11540;DHT22;5826;54.756;9.192;2022-11-20T10:47:01;4.80;99.90
11540;DHT22;5826;54.756;9.192;2022-11-20T10:49:28;4.80;99.90
11540;DHT22;5826;54.756;9.192;2022-11-20T10:52:18;4.80;99.90
11540;DHT22;5826;54.756;9.192;2022-11-20T10:55:11;4.70;99.90
11540;DHT22;5826;54.756;9.192;2022-11-20T10:58:13;4.70;99.90
11540;DHT22;5826;54.756;9.192;2022-11-20T11:00:39;4.80;99.90
11540;DHT22;5826;54.756;9.192;2022-11-20T11:03:22;4.80;99.90
11540;DHT22;5826;54.756;9.192;2022-11-20T11:05:54;4.80;99.90
11540;DHT22;5826;54.756;9.192;2022-11-20T11:08:22;4.70;99.90
11540;DHT22;5826;54.756;9.192;2022-11-20T11:10:55;4.60;99.90
11540;DHT22;5826;54.756;9.192;2022-11-20T11:13:27;4.60;99.90
11540;DHT22;5826;54.756;9.192;2022-11-20T11:15:53;4.70;99.90
11540;DHT22;5826;54.756;9.192;2022-11-20T11:18:27;4.70;99.90
11540;DHT22;5826;54.756;9.192;2022-11-20T11:20:54;4.80;99.90
11540;DHT22;5826;54.756;9.192;2022-11-20T11:25:59;4.70;99.90
11540;DHT22;5826;54.756;9.192;2022-11-20T11:28:26;4.80;99.90
11540;DHT22;5826;54.756;9.192;2022-11-20T11:30:53;4.80;99.90
11540;DHT22;5826;54.756;9.192;2022-11-20T11:33:37;4.80;99.90
11540;DHT22;5826;54.756;9.192;2022-11-20T11:36:14;4.80;99.90
11540;DHT22;5826;54.756;9.192;2022-11-20T11:38:42;4.80;99.90
11540;DHT22;5826;54.756;9.192;2022-11-20T11:41:19;4.90;99.90
11540;DHT22;5826;54.756;9.192;2022-11-20T11:47:02;5.00;99.90
11540;DHT22;5826;54.756;9.192;2022-11-20T11:49:28;5.20;99.90
11540;DHT22;5826;54.756;9.192;2022-11-20T11:54:34;5.30;99.90
11540;DHT22;5826;54.756;9.192;2022-11-20T11:57:09;5.30;99.90
11540;DHT22;5826;54.756;9.192;2022-11-20T11:59:51;5.40;99.90
11540;DHT22;5826;54.756;9.192;2022-11-20T12:02:36;5.50;99.90
11540;DHT22;5826;54.756;9.192;2022-11-20T12:05:13;5.50;99.90
11540;DHT22;5826;54.756;9.192;2022-11-20T12:08:01;5.50;99.90
11540;DHT22;5826;54.756;9.192;2022-11-20T12:10:43;5.60;99.90
11540;DHT22;5826;54.756;9.192;2022-11-20T12:13:15;5.70;99.90
11540;DHT22;5826;54.756;9.192;2022-11-20T12:15:45;6.00;99.90
11540;DHT22;5826;54.756;9.192;2022-11-20T12:18:16;6.30;99.90
11540;DHT22;5826;54.756;9.192;2022-11-20T12:20:49;6.60;99.90
11540;DHT22;5826;54.756;9.192;2022-11-20T12:23:17;7.00;99.90
11540;DHT22;5826;54.756;9.192;2022-11-20T12:25:48;7.40;99.90
11540;DHT22;5826;54.756;9.192;2022-11-20T12:28:48;7.60;99.90
11540;DHT22;5826;54.756;9.192;2022-11-20T12:31:30;7.80;99.90
11540;DHT22;5826;54.756;9.192;2022-11-20T12:37:33;8.40;99.90
11540;DHT22;5826;54.756;9.192;2022-11-20T12:40:53;9.80;99.90
11540;DHT22;5826;54.756;9.192;2022-11-20T12:47:09;13.90;99.90
11540;DHT22;5826;54.756;9.192;2022-11-20T12:49:38;15.90;99.90
11540;DHT22;5826;54.756;9.192;2022-11-20T12:55:16;18.20;99.90
11540;DHT22;5826;54.756;9.192;2022-11-20T12:58:11;18.70;99.90
11540;DHT22;5826;54.756;9.192;2022-11-20T13:00:47;19.00;99.90
11540;DHT22;5826;54.756;9.192;2022-11-20T13:03:27;19.20;99.90
11540;DHT22;5826;54.756;9.192;2022-11-20T13:06:09;19.40;99.90
11540;DHT22;5826;54.756;9.192;2022-11-20T13:08:45;19.40;99.90
11540;DHT22;5826;54.756;9.192;2022-11-20T13:11:42;19.30;99.90
11540;DHT22;5826;54.756;9.192;2022-11-20T13:17:03;18.90;99.90
11540;DHT22;5826;54.756;9.192;2022-11-20T13:19:29;18.70;99.90
11540;DHT22;5826;54.756;9.192;2022-11-20T13:21:55;18.40;99.90
11540;DHT22;5826;54.756;9.192;2022-11-20T13:27:17;18.00;99.90
11540;DHT22;5826;54.756;9.192;2022-11-20T13:29:46;17.70;99.90
11540;DHT22;5826;54.756;9.192;2022-11-20T13:32:17;17.30;99.90
11540;DHT22;5826;54.756;9.192;2022-11-20T13:35:04;17.10;99.90
11540;DHT22;5826;54.756;9.192;2022-11-20T13:37:35;16.90;99.90
11540;DHT22;5826;54.756;9.192;2022-11-20T13:43:02;16.00;99.90
11540;DHT22;5826;54.756;9.192;2022-11-20T13:45:31;15.40;99.90
11540;DHT22;5826;54.756;9.192;2022-11-20T13:48:04;14.70;99.90
11540;DHT22;5826;54.756;9.192;2022-11-20T13:53:19;13.40;99.90
11540;DHT22;5826;54.756;9.192;2022-11-20T13:56:00;12.70;99.90
11540;DHT22;5826;54.756;9.192;2022-11-20T13:58:35;11.90;99.90
11540;DHT22;5826;54.756;9.192;2022-11-20T14:01:17;11.30;99.90
11540;DHT22;5826;54.756;9.192;2022-11-20T14:03:44;10.60;99.90
11540;DHT22;5826;54.756;9.192;2022-11-20T14:06:26;9.90;99.90
11540;DHT22;5826;54.756;9.192;2022-11-20T14:08:53;9.40;99.90
11540;DHT22;5826;54.756;9.192;2022-11-20T14:11:28;8.90;99.90
11540;DHT22;5826;54.756;9.192;2022-11-20T14:16:40;8.10;99.90
11540;DHT22;5826;54.756;9.192;2022-11-20T14:21:47;7.40;99.90
11540;DHT22;5826;54.756;9.192;2022-11-20T14:24:13;7.20;99.90
11540;DHT22;5826;54.756;9.192;2022-11-20T14:26:44;6.90;99.90
11540;DHT22;5826;54.756;9.192;2022-11-20T14:29:18;6.70;99.90
11540;DHT22;5826;54.756;9.192;2022-11-20T14:31:45;6.50;99.90
11540;DHT22;5826;54.756;9.192;2022-11-20T14:34:23;6.30;99.90
11540;DHT22;5826;54.756;9.192;2022-11-20T14:36:53;6.20;99.90
11540;DHT22;5826;54.756;9.192;2022-11-20T14:39:21;6.10;99.90
11540;DHT22;5826;54.756;9.192;2022-11-20T14:41:54;6.10;99.90
11540;DHT22;5826;54.756;9.192;2022-11-20T14:44:31;5.90;99.90
11540;DHT22;5826;54.756;9.192;2022-11-20T14:46:59;5.80;99.90
11540;DHT22;5826;54.756;9.192;2022-11-20T14:49:25;5.70;99.90
11540;DHT22;5826;54.756;9.192;2022-11-20T14:52:13;5.60;99.90
11540;DHT22;5826;54.756;9.192;2022-11-20T14:54:50;5.50;99.90
11540;DHT22;5826;54.756;9.192;2022-11-20T14:57:28;5.40;99.90
11540;DHT22;5826;54.756;9.192;2022-11-20T15:00:05;5.30;99.90
11540;DHT22;5826;54.756;9.192;2022-11-20T15:02:32;5.30;99.90
11540;DHT22;5826;54.756;9.192;2022-11-20T15:05:00;5.20;99.90
11540;DHT22;5826;54.756;9.192;2022-11-20T15:07:40;5.10;99.90
11540;DHT22;5826;54.756;9.192;2022-11-20T15:10:23;5.00;99.90
11540;DHT22;5826;54.756;9.192;2022-11-20T15:13:13;4.90;99.90
11540;DHT22;5826;54.756;9.192;2022-11-20T15:15:46;4.80;99.90
11540;DHT22;5826;54.756;9.192;2022-11-20T15:18:44;4.80;99.90
11540;DHT22;5826;54.756;9.192;2022-11-20T15:21:15;4.70;99.90
11540;DHT22;5826;54.756;9.192;2022-11-20T15:23:41;4.60;99.90
11540;DHT22;5826;54.756;9.192;2022-11-20T15:26:08;4.60;99.90
11540;DHT22;5826;54.756;9.192;2022-11-20T15:28:36;4.50;99.90
11540;DHT22;5826;54.756;9.192;2022-11-20T15:31:03;4.50;99.90
11540;DHT22;5826;54.756;9.192;2022-11-20T15:33:29;4.40;99.90
11540;DHT22;5826;54.756;9.192;2022-11-20T15:35:55;4.40;99.90
11540;DHT22;5826;54.756;9.192;2022-11-20T15:38:21;4.30;99.90
11540;DHT22;5826;54.756;9.192;2022-11-20T15:40:46;4.30;99.90
11540;DHT22;5826;54.756;9.192;2022-11-20T15:43:12;4.30;99.90
11540;DHT22;5826;54.756;9.192;2022-11-20T15:45:44;4.20;99.90
11540;DHT22;5826;54.756;9.192;2022-11-20T15:48:27;4.20;99.90
11540;DHT22;5826;54.756;9.192;2022-11-20T15:53:34;4.20;99.90
11540;DHT22;5826;54.756;9.192;2022-11-20T15:56:00;4.20;99.90
11540;DHT22;5826;54.756;9.192;2022-11-20T15:58:26;4.10;99.90
11540;DHT22;5826;54.756;9.192;2022-11-20T16:00:52;4.10;99.90
11540;DHT22;5826;54.756;9.192;2022-11-20T16:03:18;4.10;99.90
11540;DHT22;5826;54.756;9.192;2022-11-20T16:05:44;4.00;99.90
11540;DHT22;5826;54.756;9.192;2022-11-20T16:08:10;4.00;99.90
11540;DHT22;5826;54.756;9.192;2022-11-20T16:10:35;4.00;99.90
11540;DHT22;5826;54.756;9.192;2022-11-20T16:13:01;4.00;99.90
11540;DHT22;5826;54.756;9.192;2022-11-20T16:15:50;4.00;99.90
11540;DHT22;5826;54.756;9.192;2022-11-20T16:18:19;3.90;99.90
11540;DHT22;5826;54.756;9.192;2022-11-20T16:20:50;3.90;99.90
11540;DHT22;5826;54.756;9.192;2022-11-20T16:23:16;3.90;99.90
11540;DHT22;5826;54.756;9.192;2022-11-20T16:25:43;3.90;99.90
11540;DHT22;5826;54.756;9.192;2022-11-20T16:28:09;3.90;99.90
11540;DHT22;5826;54.756;9.192;2022-11-20T16:30:35;3.90;99.90
11540;DHT22;5826;54.756;9.192;2022-11-20T16:33:01;3.90;99.90
11540;DHT22;5826;54.756;9.192;2022-11-20T16:35:28;3.80;99.90
11540;DHT22;5826;54.756;9.192;2022-11-20T16:37:57;3.80;99.90
11540;DHT22;5826;54.756;9.192;2022-11-20T16:40:23;3.80;99.90
11540;DHT22;5826;54.756;9.192;2022-11-20T16:42:49;3.80;99.90
11540;DHT22;5826;54.756;9.192;2022-11-20T16:45:15;3.80;99.90
11540;DHT22;5826;54.756;9.192;2022-11-20T16:47:41;3.80;99.90
11540;DHT22;5826;54.756;9.192;2022-11-20T16:50:06;3.70;99.90
11540;DHT22;5826;54.756;9.192;2022-11-20T16:52:33;3.70;99.90
11540;DHT22;5826;54.756;9.192;2022-11-20T16:54:59;3.70;99.90
11540;DHT22;5826;54.756;9.192;2022-11-20T16:57:28;3.70;99.90
11540;DHT22;5826;54.756;9.192;2022-11-20T16:59:54;3.70;99.90
11540;DHT22;5826;54.756;9.192;2022-11-20T17:02:19;3.60;99.90
11540;DHT22;5826;54.756;9.192;2022-11-20T17:04:45;3.60;99.90
11540;DHT22;5826;54.756;9.192;2022-11-20T17:07:10;3.60;99.90
11540;DHT22;5826;54.756;9.192;2022-11-20T17:09:37;3.60;99.90
11540;DHT22;5826;54.756;9.192;2022-11-20T17:12:02;3.60;99.90